createdAt,value
2019-01-17T00:00:56.926Z,6.61
2019-01-17T00:03:44.248Z,6.55
2019-01-17T00:06:32.697Z,6.53
2019-01-17T00:09:23.505Z,6.62
2019-01-17T00:12:16.048Z,6.55
2019-01-17T00:15:05.827Z,6.62
2019-01-17T00:17:49.062Z,6.59
2019-01-17T00:20:42.009Z,6.67
2019-01-17T00:23:26.567Z,6.69
2019-01-17T00:26:15.425Z,6.76
2019-01-17T00:29:11.558Z,6.74
2019-01-17T00:32:13.726Z,6.81
2019-01-17T00:35:04.946Z,6.85
2019-01-17T00:38:06.087Z,6.91
2019-01-17T00:41:07.848Z,6.97
2019-01-17T00:43:58.858Z,6.97
2019-01-17T00:46:47.101Z,6.97
2019-01-17T00:49:33.402Z,6.95
2019-01-17T00:52:35.162Z,7.07
2019-01-17T00:55:34.470Z,7.06
2019-01-17T00:58:23.838Z,7.18
2019-01-17T01:01:20.580Z,7.25
2019-01-17T01:04:08.518Z,7.17
2019-01-17T01:06:58.540Z,7.14
2019-01-17T01:09:47.678Z,7.16
2019-01-17T01:12:43.593Z,7.16
2019-01-17T01:15:30.403Z,7.14
2019-01-17T01:18:19.367Z,7.26
2019-01-17T01:21:18.568Z,7.19
2019-01-17T01:24:17.666Z,7.22
2019-01-17T01:27:13.385Z,7.20
2019-01-17T01:30:12.309Z,7.17
2019-01-17T01:33:04.814Z,7.20
2019-01-17T01:36:00.953Z,7.13
2019-01-17T01:38:59.745Z,7.18
2019-01-17T01:41:57.078Z,7.18
2019-01-17T01:44:49.958Z,7.20
2019-01-17T01:47:42.915Z,7.21
2019-01-17T01:50:42.011Z,7.24
2019-01-17T01:53:13.051Z,7.32
2019-01-17T01:55:43.897Z,7.32
2019-01-17T01:58:14.896Z,7.30
2019-01-17T02:00:45.753Z,7.37
2019-01-17T02:03:16.645Z,7.29
2019-01-17T02:05:47.530Z,7.33
2019-01-17T02:08:18.683Z,7.32
2019-01-17T02:10:49.730Z,7.34
2019-01-17T02:13:20.723Z,7.32
2019-01-17T02:15:51.598Z,7.30
2019-01-17T02:18:22.587Z,7.32
2019-01-17T02:20:53.484Z,7.33
2019-01-17T02:23:24.488Z,7.31
2019-01-17T02:25:55.362Z,7.33
2019-01-17T02:28:26.240Z,7.31
2019-01-17T02:30:57.122Z,7.33
2019-01-17T02:33:28.114Z,7.30
2019-01-17T02:35:59.016Z,7.34
2019-01-17T02:38:29.907Z,7.36
2019-01-17T02:41:00.674Z,7.36
2019-01-17T02:43:32.402Z,7.33
2019-01-17T02:46:03.189Z,7.35
2019-01-17T02:48:34.156Z,7.27
2019-01-17T02:51:05.043Z,7.36
2019-01-17T02:53:36.238Z,7.33
2019-01-17T02:56:08.163Z,7.42
2019-01-17T02:58:39.165Z,7.33
2019-01-17T03:01:10.027Z,7.33
2019-01-17T03:03:41.117Z,7.31
2019-01-17T03:06:12.007Z,7.29
2019-01-17T03:08:43.004Z,7.28
2019-01-17T03:11:14.005Z,7.29
2019-01-17T03:13:44.973Z,7.35
2019-01-17T03:16:15.861Z,7.36
2019-01-17T03:18:46.953Z,7.35
2019-01-17T03:21:17.756Z,7.27
2019-01-17T03:23:48.761Z,7.25
2019-01-17T03:26:19.618Z,7.24
2019-01-17T03:28:50.673Z,7.28
2019-01-17T03:31:21.494Z,7.24
2019-01-17T03:33:52.567Z,7.17
2019-01-17T03:36:23.493Z,7.11
2019-01-17T03:38:54.463Z,7.04
2019-01-17T03:41:25.360Z,6.98
2019-01-17T03:43:56.805Z,6.89
2019-01-17T03:46:27.637Z,6.78
2019-01-17T03:48:59.038Z,6.70
2019-01-17T03:51:29.926Z,6.69
2019-01-17T03:54:00.749Z,6.59
2019-01-17T03:56:31.742Z,6.50
2019-01-17T03:59:02.773Z,6.45
2019-01-17T04:01:33.676Z,6.49
2019-01-17T04:04:04.933Z,6.58
2019-01-17T04:06:35.953Z,6.72
2019-01-17T04:09:08.315Z,6.77
2019-01-17T04:11:39.176Z,6.83
2019-01-17T04:14:10.066Z,6.90
2019-01-17T04:16:40.877Z,6.93
2019-01-17T04:19:11.733Z,6.99
2019-01-17T04:21:43.547Z,6.96
2019-01-17T04:24:14.436Z,6.97
2019-01-17T04:26:45.216Z,7.04
2019-01-17T04:29:16.192Z,7.04
2019-01-17T04:31:47.113Z,7.02
2019-01-17T04:34:18.113Z,7.04
2019-01-17T04:36:48.969Z,6.98
2019-01-17T04:39:19.973Z,7.04
2019-01-17T04:41:50.850Z,7.02
2019-01-17T04:44:21.846Z,7.01
2019-01-17T04:46:52.637Z,6.98
2019-01-17T04:49:23.881Z,6.97
2019-01-17T04:51:54.807Z,7.00
2019-01-17T04:54:26.090Z,7.07
2019-01-17T04:56:56.653Z,7.07
2019-01-17T04:59:27.338Z,7.07
2019-01-17T05:01:58.267Z,7.09
2019-01-17T05:04:29.264Z,7.13
2019-01-17T05:07:00.036Z,7.10
2019-01-17T05:09:31.019Z,7.08
2019-01-17T05:12:01.915Z,7.14
2019-01-17T05:14:33.021Z,7.13
2019-01-17T05:17:03.902Z,7.21
2019-01-17T05:19:34.776Z,7.28
2019-01-17T05:22:05.567Z,7.31
2019-01-17T05:24:36.552Z,7.36
2019-01-17T05:27:07.434Z,7.45
2019-01-17T05:29:38.422Z,7.49
2019-01-17T05:32:09.130Z,7.55
2019-01-17T05:34:40.058Z,7.56
2019-01-17T05:37:10.897Z,7.60
2019-01-17T05:39:41.970Z,7.60
2019-01-17T05:42:12.777Z,7.65
2019-01-17T05:44:43.668Z,7.77
2019-01-17T05:47:14.345Z,7.86
2019-01-17T05:49:45.325Z,7.92
2019-01-17T05:52:16.225Z,7.94
2019-01-17T05:54:47.504Z,8.12
2019-01-17T05:57:18.397Z,8.05
2019-01-17T05:59:49.385Z,8.08
2019-01-17T06:02:20.277Z,8.07
2019-01-17T06:04:51.269Z,8.07
2019-01-17T06:07:22.060Z,8.00
2019-01-17T06:09:53.053Z,8.00
2019-01-17T06:12:23.940Z,7.99
2019-01-17T06:14:54.815Z,7.95
2019-01-17T06:17:25.597Z,7.92
2019-01-17T06:19:56.645Z,7.99
2019-01-17T06:22:27.593Z,7.85
2019-01-17T06:24:58.720Z,7.82
2019-01-17T06:27:29.564Z,7.78
2019-01-17T06:30:00.541Z,7.78
2019-01-17T06:32:31.428Z,7.82
2019-01-17T06:35:02.446Z,7.81
2019-01-17T06:37:33.389Z,7.75
2019-01-17T06:40:04.804Z,7.82
2019-01-17T06:42:35.716Z,7.86
2019-01-17T06:45:06.793Z,7.84
2019-01-17T06:47:37.674Z,7.87
2019-01-17T06:50:09.364Z,7.93
2019-01-17T06:52:40.294Z,7.90
2019-01-17T06:55:11.544Z,7.97
2019-01-17T06:57:42.479Z,7.93
2019-01-17T07:00:14.594Z,7.89
2019-01-17T07:02:45.585Z,7.85
2019-01-17T07:05:16.401Z,7.83
2019-01-17T07:07:47.337Z,7.79
2019-01-17T07:10:18.428Z,7.81
2019-01-17T07:12:49.315Z,7.78
2019-01-17T07:15:20.058Z,7.89
2019-01-17T07:17:50.721Z,7.82
2019-01-17T07:20:21.705Z,7.82
2019-01-17T07:22:52.688Z,7.83
2019-01-17T07:25:23.510Z,7.85
2019-01-17T07:27:54.057Z,7.84
2019-01-17T07:30:25.439Z,7.86
2019-01-17T07:32:56.128Z,7.90
2019-01-17T07:35:26.851Z,7.93
2019-01-17T07:37:57.809Z,8.00
2019-01-17T07:40:28.685Z,7.98
2019-01-17T07:42:59.553Z,7.97
2019-01-17T07:45:31.705Z,8.00
2019-01-17T07:48:02.821Z,7.96
2019-01-17T07:50:33.969Z,7.96
2019-01-17T07:53:05.024Z,7.98
2019-01-17T07:55:35.999Z,7.97
2019-01-17T07:58:06.744Z,8.04
2019-01-17T08:00:37.421Z,8.09
2019-01-17T08:03:08.449Z,8.07
2019-01-17T08:05:39.414Z,8.11
2019-01-17T08:08:09.966Z,8.06
2019-01-17T08:10:40.574Z,8.02
2019-01-17T08:13:11.321Z,8.03
2019-01-17T08:15:42.335Z,8.00
2019-01-17T08:18:18.632Z,8.05
2019-01-17T08:20:45.958Z,8.10
2019-01-17T08:23:16.632Z,8.18
2019-01-17T08:25:47.365Z,8.16
2019-01-17T08:28:18.221Z,8.24
2019-01-17T08:30:50.209Z,8.23
2019-01-17T08:33:21.117Z,8.15
2019-01-17T08:35:52.112Z,8.11
2019-01-17T08:38:22.980Z,8.18
2019-01-17T08:40:53.966Z,8.07
2019-01-17T08:43:24.755Z,8.03
2019-01-17T08:45:55.570Z,8.00
2019-01-17T08:48:26.536Z,8.02
2019-01-17T08:50:57.528Z,8.00
2019-01-17T08:53:28.396Z,8.02
2019-01-17T08:56:00.833Z,8.03
2019-01-17T08:58:32.034Z,8.05
2019-01-17T09:01:02.933Z,8.06
2019-01-17T09:03:33.792Z,8.04
2019-01-17T09:06:04.784Z,8.07
2019-01-17T09:08:35.569Z,8.06
2019-01-17T09:11:06.960Z,8.05
2019-01-17T09:13:37.872Z,8.03
2019-01-17T09:16:08.847Z,7.99
2019-01-17T09:18:39.729Z,7.98
2019-01-17T09:21:10.740Z,7.98
2019-01-17T09:23:41.628Z,8.00
2019-01-17T09:26:12.807Z,7.99
2019-01-17T09:28:43.695Z,8.00
2019-01-17T09:31:14.702Z,8.03
2019-01-17T09:33:45.488Z,8.06
2019-01-17T09:36:16.588Z,8.05
2019-01-17T09:38:47.554Z,8.07
2019-01-17T09:41:19.485Z,8.05
2019-01-17T09:43:50.654Z,8.05
2019-01-17T09:46:21.774Z,8.08
2019-01-17T09:48:52.648Z,8.03
2019-01-17T09:51:23.613Z,8.04
2019-01-17T09:53:54.585Z,8.06
2019-01-17T09:56:25.535Z,8.07
2019-01-17T09:58:56.503Z,8.07
2019-01-17T10:01:27.572Z,8.12
2019-01-17T10:03:58.478Z,8.09
2019-01-17T10:06:29.481Z,8.05
2019-01-17T10:09:00.371Z,8.03
2019-01-17T10:11:32.667Z,8.08
2019-01-17T10:14:03.574Z,8.15
2019-01-17T10:17:02.871Z,8.07
2019-01-17T10:19:58.661Z,8.10
2019-01-17T10:22:54.310Z,8.11
2019-01-17T10:25:50.246Z,8.09
2019-01-17T10:28:59.969Z,8.23
2019-01-17T10:32:08.623Z,8.17
2019-01-17T10:35:32.281Z,8.18
2019-01-17T10:38:28.928Z,8.20
2019-01-17T10:41:30.861Z,8.11
2019-01-17T10:44:42.184Z,8.02
2019-01-17T10:47:47.311Z,7.96
2019-01-17T10:50:53.679Z,7.93
2019-01-17T10:54:10.903Z,7.86
2019-01-17T10:57:31.403Z,7.82
2019-01-17T11:00:43.174Z,7.73
2019-01-17T11:03:39.954Z,7.77
2019-01-17T11:06:46.826Z,7.78
2019-01-17T11:09:26.633Z,7.82
2019-01-17T11:12:44.921Z,7.78
2019-01-17T11:15:52.123Z,7.86
2019-01-17T11:19:06.161Z,7.83
2019-01-17T11:22:06.804Z,7.88
2019-01-17T11:25:02.446Z,7.99
2019-01-17T11:27:57.015Z,7.98
2019-01-17T11:31:37.067Z,8.01
2019-01-17T11:34:53.774Z,7.97
2019-01-17T11:38:10.345Z,8.02
2019-01-17T11:41:00.992Z,8.02
2019-01-17T11:44:05.305Z,8.01
2019-01-17T11:47:38.297Z,8.07
2019-01-17T11:50:48.764Z,7.98
2019-01-17T11:53:52.881Z,7.95
2019-01-17T11:56:40.800Z,7.94
2019-01-17T11:59:48.013Z,7.99
2019-01-17T12:03:07.074Z,8.01
2019-01-17T12:05:37.821Z,8.01
2019-01-17T12:08:12.256Z,8.08
2019-01-17T12:10:43.167Z,8.10
2019-01-17T12:13:18.660Z,8.11
2019-01-17T12:15:49.453Z,8.09
2019-01-17T12:18:20.385Z,8.11
2019-01-17T12:20:51.429Z,8.12
2019-01-17T12:23:22.471Z,8.11
2019-01-17T12:25:53.469Z,8.12
2019-01-17T12:28:24.352Z,8.07
2019-01-17T12:30:55.329Z,8.11
2019-01-17T12:33:26.219Z,8.10
2019-01-17T12:35:57.101Z,8.14
2019-01-17T12:38:27.989Z,8.09
2019-01-17T12:40:59.150Z,8.14
2019-01-17T12:43:32.515Z,8.06
2019-01-17T12:46:08.613Z,8.08
2019-01-17T12:48:39.431Z,8.09
2019-01-17T12:51:10.732Z,8.13
2019-01-17T12:53:41.630Z,8.14
2019-01-17T12:56:12.624Z,8.11
2019-01-17T12:58:43.383Z,8.17
2019-01-17T13:01:14.460Z,8.37
2019-01-17T13:03:45.361Z,8.38
2019-01-17T13:06:16.271Z,8.51
2019-01-17T13:08:48.085Z,8.50
2019-01-17T13:11:19.040Z,8.52
2019-01-17T13:13:49.850Z,8.48
2019-01-17T13:16:21.204Z,8.47
2019-01-17T13:18:52.118Z,8.48
2019-01-17T13:21:23.131Z,8.37
2019-01-17T13:23:54.117Z,8.46
2019-01-17T13:26:24.996Z,8.39
2019-01-17T13:28:55.984Z,8.51
2019-01-17T13:31:27.232Z,8.56
2019-01-17T13:33:58.181Z,8.66
2019-01-17T13:36:29.172Z,8.59
2019-01-17T13:39:00.040Z,8.62
2019-01-17T13:41:31.308Z,8.51
2019-01-17T13:44:02.240Z,8.42
2019-01-17T13:46:33.217Z,8.40
2019-01-17T13:49:04.100Z,8.49
2019-01-17T13:51:35.163Z,8.53
2019-01-17T13:54:06.185Z,8.45
2019-01-17T13:56:37.141Z,8.41
2019-01-17T13:59:07.979Z,8.35
2019-01-17T14:01:39.029Z,8.31
2019-01-17T14:04:09.959Z,8.31
2019-01-17T14:06:40.958Z,8.29
2019-01-17T14:09:11.833Z,8.28
2019-01-17T14:11:42.808Z,8.25
2019-01-17T14:14:13.559Z,8.14
2019-01-17T14:24:19.397Z,8.20
2019-01-17T14:26:50.190Z,8.09
2019-01-17T14:29:21.068Z,7.99
2019-01-17T14:31:51.993Z,7.96
2019-01-17T14:34:23.062Z,7.91
2019-01-17T14:36:53.944Z,7.87
2019-01-17T14:39:24.836Z,7.84
2019-01-17T14:41:55.749Z,7.78
2019-01-17T14:44:26.450Z,7.72
2019-01-17T14:46:57.444Z,7.62
2019-01-17T14:49:28.467Z,7.64
2019-01-17T14:51:59.369Z,7.65
2019-01-17T14:54:30.164Z,7.62
2019-01-17T14:57:01.074Z,7.59
2019-01-17T14:59:31.912Z,7.57
2019-01-17T15:02:02.962Z,7.51
2019-01-17T15:04:33.758Z,7.48
2019-01-17T15:07:04.593Z,7.39
2019-01-17T15:09:35.362Z,7.38
2019-01-17T15:12:06.267Z,7.38
2019-01-17T15:14:37.106Z,7.36
2019-01-17T15:17:08.019Z,7.35
2019-01-17T15:19:38.882Z,7.28
2019-01-17T15:22:09.806Z,7.30
2019-01-17T15:24:40.551Z,7.20
2019-01-17T15:27:11.422Z,7.14
2019-01-17T15:29:42.355Z,7.03
2019-01-17T15:32:13.238Z,6.96
2019-01-17T15:34:44.035Z,6.97
2019-01-17T15:37:14.890Z,6.92
2019-01-17T15:39:45.672Z,6.86
2019-01-17T15:42:16.649Z,6.86
2019-01-17T15:44:47.537Z,6.90
2019-01-17T15:47:18.366Z,6.86
2019-01-17T15:49:49.150Z,6.90
2019-01-17T15:52:20.210Z,6.94
2019-01-17T15:54:51.097Z,6.89
2019-01-17T15:57:22.162Z,6.86
2019-01-17T15:59:52.800Z,6.88
2019-01-17T16:02:23.871Z,6.82
2019-01-17T16:04:54.702Z,6.70
2019-01-17T16:07:25.523Z,6.69
2019-01-17T16:09:56.318Z,6.70
2019-01-17T16:12:26.998Z,6.60
2019-01-17T16:14:57.928Z,6.66
2019-01-17T16:17:28.926Z,6.66
2019-01-17T16:19:59.807Z,6.67
2019-01-17T16:22:30.884Z,6.68
2019-01-17T16:25:01.741Z,6.68
2019-01-17T16:27:32.552Z,6.66
2019-01-17T16:30:03.314Z,6.61
2019-01-17T16:32:34.094Z,6.58
2019-01-17T16:35:05.675Z,6.49
2019-01-17T16:37:36.682Z,6.47
2019-01-17T16:40:09.303Z,6.49
2019-01-17T16:42:40.134Z,6.41
2019-01-17T16:45:12.131Z,6.45
2019-01-17T16:47:43.105Z,6.48
2019-01-17T16:50:21.668Z,6.48
2019-01-17T16:52:52.618Z,6.50
2019-01-17T16:55:23.450Z,6.46
2019-01-17T16:57:54.442Z,6.35
2019-01-17T17:00:30.549Z,6.36
2019-01-17T17:03:01.571Z,6.36
2019-01-17T17:05:32.466Z,6.31
2019-01-17T17:08:03.414Z,6.36
2019-01-17T17:10:34.306Z,6.27
2019-01-17T17:13:05.561Z,6.27
2019-01-17T17:15:36.323Z,6.15
2019-01-17T17:18:07.101Z,6.07
2019-01-17T17:20:37.969Z,6.13
2019-01-17T17:23:08.746Z,6.20
2019-01-17T17:25:39.530Z,6.06
2019-01-17T17:28:10.515Z,6.03
2019-01-17T17:30:41.350Z,5.95
2019-01-17T17:33:12.421Z,5.90
2019-01-17T17:35:43.317Z,5.87
2019-01-17T17:38:14.207Z,5.83
2019-01-17T17:40:45.061Z,5.74
2019-01-17T17:43:16.097Z,5.73
2019-01-17T17:45:46.870Z,5.75
2019-01-17T17:48:17.726Z,5.73
2019-01-17T17:50:48.438Z,5.74
2019-01-17T17:53:19.773Z,5.70
2019-01-17T17:55:50.484Z,5.76
2019-01-17T17:58:21.370Z,5.77
2019-01-17T18:01:09.779Z,5.85
2019-01-17T18:03:40.741Z,5.81
2019-01-17T18:06:11.650Z,5.80
2019-01-17T18:08:42.526Z,5.81
2019-01-17T18:11:13.468Z,5.80
2019-01-17T18:13:44.425Z,5.80
2019-01-17T18:16:15.311Z,5.80
2019-01-17T18:18:46.277Z,5.86
2019-01-17T18:21:17.214Z,5.90
2019-01-17T18:23:48.086Z,5.79
2019-01-17T18:26:18.990Z,5.88
2019-01-17T18:28:49.866Z,5.80
2019-01-17T18:31:20.730Z,5.80
2019-01-17T18:33:51.526Z,5.84
2019-01-17T18:36:22.374Z,5.80
2019-01-17T18:38:53.181Z,5.83
2019-01-17T18:41:24.075Z,5.81
2019-01-17T18:43:55.093Z,5.80
2019-01-17T18:46:26.003Z,5.80
2019-01-17T18:48:57.130Z,5.71
2019-01-17T18:51:27.934Z,5.74
2019-01-17T18:53:58.825Z,5.76
2019-01-17T18:56:29.910Z,5.80
2019-01-17T18:59:01.021Z,5.80
2019-01-17T19:01:31.493Z,5.71
2019-01-17T19:04:02.380Z,5.68
2019-01-17T19:06:34.220Z,5.59
2019-01-17T19:09:07.810Z,5.52
2019-01-17T19:11:38.650Z,5.42
2019-01-17T19:14:09.597Z,5.38
2019-01-17T19:16:40.321Z,5.35
2019-01-17T19:19:11.268Z,5.26
2019-01-17T19:21:42.157Z,5.26
2019-01-17T19:24:13.079Z,5.27
2019-01-17T19:26:43.771Z,5.33
2019-01-17T19:29:14.753Z,5.29
2019-01-17T19:31:45.546Z,5.29
2019-01-17T19:34:16.185Z,5.34
2019-01-17T19:36:46.663Z,5.33
2019-01-17T19:39:17.334Z,5.29
2019-01-17T19:41:47.970Z,5.34
2019-01-17T19:44:18.950Z,5.27
2019-01-17T19:46:49.741Z,5.26
2019-01-17T19:49:21.062Z,5.33
2019-01-17T19:51:51.928Z,5.32
2019-01-17T19:54:22.662Z,5.31
2019-01-17T19:56:53.497Z,5.35
2019-01-17T19:59:24.250Z,5.32
2019-01-17T20:01:55.033Z,5.34
2019-01-17T20:04:26.046Z,5.27
2019-01-17T20:06:56.945Z,5.32
2019-01-17T20:09:27.905Z,5.39
2019-01-17T20:11:58.785Z,5.29
2019-01-17T20:14:29.875Z,5.28
2019-01-17T20:17:00.803Z,5.23
2019-01-17T20:19:31.796Z,5.22
2019-01-17T20:22:02.646Z,5.25
2019-01-17T20:24:33.551Z,5.28
2019-01-17T20:27:04.615Z,5.23
2019-01-17T20:29:35.607Z,5.30
2019-01-17T20:32:07.422Z,5.28
2019-01-17T20:34:38.302Z,5.29
2019-01-17T20:37:08.946Z,5.34
2019-01-17T20:39:39.805Z,5.28
2019-01-17T20:42:11.572Z,5.30
2019-01-17T20:44:42.430Z,5.32
2019-01-17T20:47:13.267Z,5.31
2019-01-17T20:49:44.165Z,5.33
2019-01-17T20:52:14.862Z,5.31
2019-01-17T20:54:45.850Z,5.28
2019-01-17T20:57:16.977Z,5.27
2019-01-17T20:59:47.877Z,5.30
2019-01-17T21:02:20.623Z,5.30
2019-01-17T21:04:52.663Z,5.15
2019-01-17T21:07:23.264Z,4.71
2019-01-17T21:09:54.518Z,4.50
2019-01-17T21:12:25.410Z,3.66
2019-01-17T21:14:56.205Z,3.33
2019-01-17T21:17:27.237Z,3.14
2019-01-17T21:19:58.273Z,3.02
2019-01-17T21:22:28.882Z,2.87
2019-01-17T21:24:59.398Z,2.92
2019-01-17T21:27:30.258Z,3.18
2019-01-17T21:30:01.011Z,3.16
2019-01-17T21:32:31.894Z,3.09
2019-01-17T21:35:02.511Z,3.23
2019-01-17T21:37:33.270Z,3.28
2019-01-17T21:40:04.757Z,3.28
2019-01-17T21:42:35.645Z,3.32
2019-01-17T21:45:09.074Z,3.32
2019-01-17T21:47:39.708Z,3.28
2019-01-17T21:50:13.030Z,3.22
2019-01-17T21:52:43.944Z,3.31
2019-01-17T21:55:14.807Z,3.35
2019-01-17T21:57:45.583Z,3.45
2019-01-17T22:00:22.638Z,3.44
2019-01-17T22:02:53.608Z,3.35
2019-01-17T22:05:25.782Z,3.34
2019-01-17T22:07:56.823Z,3.37
2019-01-17T22:10:27.719Z,3.43
2019-01-17T22:12:58.586Z,3.36
2019-01-17T22:15:29.369Z,3.29
2019-01-17T22:18:00.159Z,3.30
2019-01-17T22:20:32.663Z,3.30
2019-01-17T22:23:03.606Z,3.35
2019-01-17T22:25:34.651Z,3.31
2019-01-17T22:28:05.549Z,3.18
2019-01-17T22:30:36.475Z,3.15
2019-01-17T22:33:07.317Z,3.02
2019-01-17T22:35:38.498Z,2.94
2019-01-17T22:38:09.491Z,2.96
2019-01-17T22:40:40.416Z,2.94
2019-01-17T22:43:11.181Z,2.92
2019-01-17T22:45:42.150Z,3.03
2019-01-17T22:48:12.954Z,3.14
2019-01-17T22:50:43.842Z,3.17
2019-01-17T22:53:14.782Z,3.10
2019-01-17T22:55:45.531Z,3.13
2019-01-17T22:58:16.340Z,3.13
2019-01-17T23:00:54.525Z,3.18
2019-01-17T23:03:43.065Z,3.19
2019-01-17T23:06:14.046Z,3.08
2019-01-17T23:08:44.678Z,2.94
2019-01-17T23:11:15.723Z,2.76
2019-01-17T23:13:46.551Z,2.57
2019-01-17T23:16:17.614Z,2.42
2019-01-17T23:18:48.386Z,2.46
2019-01-17T23:21:19.476Z,2.57
2019-01-17T23:23:50.407Z,2.56
2019-01-17T23:26:21.594Z,2.61
2019-01-17T23:28:52.458Z,2.58
2019-01-17T23:31:23.353Z,2.51
2019-01-17T23:33:54.029Z,2.50
2019-01-17T23:36:24.806Z,2.39
2019-01-17T23:38:55.700Z,2.51
2019-01-17T23:41:26.582Z,2.50
2019-01-17T23:43:58.970Z,2.57
2019-01-17T23:46:31.033Z,2.60
2019-01-17T23:49:01.838Z,2.55
2019-01-17T23:51:32.425Z,2.37
2019-01-17T23:54:03.202Z,2.24
2019-01-17T23:56:34.085Z,2.19
2019-01-17T23:59:04.561Z,2.15
